Time;durP1;ratioP1;P1;durP2;ratioP2;P2;SDS_P1;SDS_P2;PMS_P1;PMS_P2;Temp;Humidity;BMP_temperature;BMP_pressure;BME280_temperature;BME280_humidity;BME280_pressure;Samples;Min_cycle;Max_cycle;Signal;HPM_P1;HPM_P2
2022/12/19 00:02:08;;;;;;;31.90;18.08;;;6.70;99.90;;;;;;5073871;28;20052;-42
2022/12/19 00:04:33;;;;;;;32.05;18.23;;;6.40;99.90;;;;;;5073788;28;20027;-42
2022/12/19 00:06:59;;;;;;;30.45;18.35;;;6.20;99.90;;;;;;5073617;28;20024;-39
2022/12/19 00:09:26;;;;;;;29.13;16.90;;;6.00;99.90;;;;;;5073949;28;20075;-41
2022/12/19 00:11:52;;;;;;;29.05;17.35;;;6.50;99.90;;;;;;5073744;28;20268;-43
2022/12/19 00:14:18;;;;;;;29.60;17.60;;;7.30;99.90;;;;;;5072118;28;20115;-42
2022/12/19 00:16:44;;;;;;;30.23;17.67;;;7.00;99.90;;;;;;5073331;28;20113;-36
2022/12/19 00:19:10;;;;;;;30.33;17.38;;;6.60;99.90;;;;;;5073504;28;20029;-37
2022/12/19 00:21:36;;;;;;;29.20;17.45;;;6.40;99.90;;;;;;5073571;28;20020;-42
2022/12/19 00:24:04;;;;;;;28.60;16.40;;;6.10;99.90;;;;;;5073513;28;20482;-39
2022/12/19 00:26:31;;;;;;;28.63;17.33;;;6.00;99.90;;;;;;5072978;28;20033;-42
2022/12/19 00:29:03;;;;;;;28.38;17.17;;;6.70;99.90;;;;;;5073742;28;20066;-42
2022/12/19 00:31:32;;;;;;;27.50;16.58;;;7.20;99.90;;;;;;5073324;28;20059;-38
2022/12/19 00:33:58;;;;;;;30.00;16.77;;;6.90;99.90;;;;;;5073645;28;20032;-43
2022/12/19 00:36:26;;;;;;;27.55;16.48;;;6.60;99.90;;;;;;5072993;28;20032;-39
2022/12/19 00:38:56;;;;;;;29.85;16.98;;;6.30;99.90;;;;;;5073068;28;20491;-37
2022/12/19 00:41:27;;;;;;;27.80;16.45;;;6.10;99.90;;;;;;5073175;28;20025;-41
2022/12/19 00:43:55;;;;;;;27.52;16.92;;;6.00;99.90;;;;;;5073292;28;20054;-42
2022/12/19 00:46:21;;;;;;;29.30;16.10;;;7.00;99.90;;;;;;5072706;28;20044;-42
2022/12/19 00:48:47;;;;;;;27.75;16.25;;;7.20;99.90;;;;;;5073093;28;20028;-40
2022/12/19 00:51:15;;;;;;;27.08;16.00;;;6.90;99.90;;;;;;5073019;28;20508;-43
2022/12/19 00:53:41;;;;;;;27.58;15.75;;;6.60;99.90;;;;;;5073266;28;20457;-42
2022/12/19 00:56:13;;;;;;;26.92;15.80;;;6.30;99.90;;;;;;5072639;28;20043;-42
2022/12/19 00:58:40;;;;;;;24.85;15.38;;;6.10;99.90;;;;;;5072858;28;20563;-42
2022/12/19 01:01:11;;;;;;;26.35;16.45;;;6.00;99.90;;;;;;5072818;28;20135;-42
2022/12/19 01:03:37;;;;;;;26.00;15.80;;;7.10;99.90;;;;;;5072820;28;20020;-42
2022/12/19 01:06:03;;;;;;;27.42;16.88;;;7.20;99.90;;;;;;5072325;28;20024;-39
2022/12/19 01:08:29;;;;;;;26.17;16.25;;;6.90;99.90;;;;;;5072666;28;20105;-43
2022/12/19 01:10:55;;;;;;;28.27;16.63;;;6.60;99.90;;;;;;5072843;28;20107;-39
2022/12/19 01:13:22;;;;;;;27.73;16.50;;;6.30;99.90;;;;;;5072513;28;20444;-37
2022/12/19 01:15:48;;;;;;;27.25;16.10;;;6.10;99.90;;;;;;5072106;28;20332;-41
2022/12/19 01:18:14;;;;;;;25.90;16.25;;;6.00;99.90;;;;;;5071862;28;20417;-37
2022/12/19 01:20:41;;;;;;;25.77;16.02;;;7.10;99.90;;;;;;5072374;28;20021;-39
2022/12/19 01:23:08;;;;;;;25.55;15.52;;;7.20;99.90;;;;;;5072381;28;20032;-39
2022/12/19 01:25:35;;;;;;;25.90;16.38;;;6.80;99.90;;;;;;5072288;28;20095;-42
2022/12/19 01:28:01;;;;;;;26.98;16.20;;;6.50;99.90;;;;;;5072483;28;20044;-42
2022/12/19 01:30:27;;;;;;;26.67;15.93;;;6.30;99.90;;;;;;5072220;28;20287;-40
2022/12/19 01:32:53;;;;;;;26.48;15.38;;;6.10;99.90;;;;;;5071944;28;20024;-38
2022/12/19 01:35:21;;;;;;;26.73;16.13;;;6.20;99.90;;;;;;5072106;28;20032;-41
2022/12/19 01:37:47;;;;;;;28.98;16.63;;;7.20;99.90;;;;;;5071889;28;20027;-43
2022/12/19 01:40:12;;;;;;;25.50;15.52;;;7.20;99.90;;;;;;5072071;28;20307;-40
2022/12/19 01:42:38;;;;;;;25.38;15.18;;;6.80;99.90;;;;;;5071957;28;20099;-35
2022/12/19 01:45:23;;;;;;;24.75;15.07;;;6.50;99.90;;;;;;5071867;28;20032;-43
2022/12/19 01:47:50;;;;;;;;;;;6.20;99.90;;;;;;5072111;28;20103;-43
2022/12/19 01:50:24;;;;;;;26.83;15.60;;;6.10;99.90;;;;;;5071847;28;19934;-42
2022/12/19 01:52:51;;;;;;;26.35;15.25;;;6.40;99.90;;;;;;5071945;28;20083;-43
2022/12/19 01:55:17;;;;;;;26.65;15.48;;;7.30;99.90;;;;;;5071682;28;20036;-41
2022/12/19 01:57:42;;;;;;;24.98;15.32;;;7.10;99.90;;;;;;5071386;28;20051;-42
2022/12/19 02:00:09;;;;;;;25.58;15.07;;;6.70;99.90;;;;;;5071545;28;20381;-39
2022/12/19 02:02:41;;;;;;;27.40;15.38;;;6.40;99.90;;;;;;5071804;28;20059;-36
2022/12/19 02:05:07;;;;;;;25.85;15.82;;;6.20;99.90;;;;;;5071674;28;20028;-37
2022/12/19 02:07:35;;;;;;;26.30;16.23;;;6.00;99.90;;;;;;5071255;28;20020;-35
2022/12/19 02:10:01;;;;;;;23.85;14.73;;;6.60;99.90;;;;;;5071582;28;20028;-42
2022/12/19 02:12:35;;;;;;;22.05;13.73;;;7.30;99.90;;;;;;5071383;28;20035;-41
2022/12/19 02:15:01;;;;;;;24.83;15.05;;;7.10;99.90;;;;;;5071555;28;20032;-43
2022/12/19 02:17:45;;;;;;;22.13;14.50;;;6.60;99.90;;;;;;5071287;28;20097;-41
2022/12/19 02:20:46;;;;;;;26.30;15.65;;;6.40;99.90;;;;;;5071327;28;20518;-40
2022/12/19 02:23:27;;;;;;;22.92;14.40;;;6.10;99.90;;;;;;5071424;28;20032;-41
2022/12/19 02:26:37;;;;;;;24.60;14.48;;;6.00;99.90;;;;;;5071099;28;20052;-39
2022/12/19 02:29:23;;;;;;;26.08;15.82;;;7.20;99.90;;;;;;5047936;28;20028;-43
2022/12/19 02:31:53;;;;;;;26.00;13.95;;;7.00;99.90;;;;;;5071352;28;20098;-42
2022/12/19 02:34:32;;;;;;;24.80;15.40;;;6.70;99.90;;;;;;5071307;28;20417;-42
2022/12/19 02:37:06;;;;;;;29.33;15.32;;;6.40;99.90;;;;;;5070830;28;20035;-41
2022/12/19 02:39:46;;;;;;;24.17;15.05;;;6.10;99.90;;;;;;5071306;28;20051;-43
2022/12/19 02:42:22;;;;;;;24.20;14.98;;;6.00;99.90;;;;;;5071306;28;20020;-42
2022/12/19 02:44:50;;;;;;;27.20;16.08;;;7.00;99.90;;;;;;5071181;28;20023;-39
2022/12/19 02:47:17;;;;;;;24.52;14.70;;;7.20;99.90;;;;;;5070813;28;20079;-38
2022/12/19 02:49:43;;;;;;;25.23;15.63;;;6.90;99.90;;;;;;5071105;28;20028;-37
2022/12/19 02:52:09;;;;;;;25.88;15.52;;;6.60;99.90;;;;;;5071167;28;20059;-43
2022/12/19 02:54:35;;;;;;;26.90;15.30;;;6.30;99.90;;;;;;5071025;28;20494;-43
2022/12/19 02:57:06;;;;;;;23.20;14.57;;;6.10;99.90;;;;;;5071073;28;20032;-41
2022/12/19 02:59:40;;;;;;;25.83;15.15;;;6.10;99.90;;;;;;5071035;28;20036;-42
2022/12/19 03:02:17;;;;;;;;;;;7.20;99.90;;;;;;5071360;28;20104;-43
2022/12/19 03:04:58;;;;;;;25.25;14.20;;;7.20;99.90;;;;;;5071066;28;19908;-39
2022/12/19 03:07:32;;;;;;;25.20;14.30;;;6.80;99.90;;;;;;5070742;28;20052;-42
2022/12/19 03:10:21;;;;;;;24.40;14.20;;;6.50;99.90;;;;;;5071298;28;20413;-42
2022/12/19 03:12:56;;;;;;;23.85;14.48;;;6.20;99.90;;;;;;5070880;28;20029;-41
2022/12/19 03:15:23;;;;;;;25.17;14.13;;;6.10;99.90;;;;;;5070634;28;20028;-38
2022/12/19 03:17:49;;;;;;;23.92;15.05;;;6.70;99.90;;;;;;5070639;28;20425;-39
2022/12/19 03:20:57;;;;;;;25.85;14.35;;;7.30;99.90;;;;;;5071144;28;20031;-41
2022/12/19 03:23:23;;;;;;;22.52;13.82;;;7.00;99.90;;;;;;5070839;28;20509;-40
2022/12/19 03:25:56;;;;;;;23.30;14.90;;;6.60;99.90;;;;;;5070544;28;20024;-34
2022/12/19 03:28:32;;;;;;;24.38;14.25;;;6.30;99.90;;;;;;5070631;28;20098;-40
2022/12/19 03:30:59;;;;;;;23.48;14.50;;;6.10;99.90;;;;;;5070661;28;20016;-40
2022/12/19 03:33:28;;;;;;;25.48;14.52;;;6.10;99.90;;;;;;5070716;28;20104;-42
2022/12/19 03:35:56;;;;;;;22.92;13.77;;;7.20;99.90;;;;;;5070455;28;20050;-42
2022/12/19 03:38:22;;;;;;;22.42;13.82;;;7.20;99.90;;;;;;5070636;28;20044;-37
2022/12/19 03:40:49;;;;;;;25.27;14.52;;;6.90;99.90;;;;;;5072353;28;20044;-40
2022/12/19 03:43:17;;;;;;;23.85;13.20;;;6.50;99.90;;;;;;5074143;28;20048;-38
2022/12/19 03:46:10;;;;;;;21.65;13.50;;;6.30;99.90;;;;;;5074079;28;20108;-42
2022/12/19 03:48:41;;;;;;;22.92;13.60;;;6.10;99.90;;;;;;5074480;28;20363;-39
2022/12/19 03:51:22;;;;;;;24.27;14.25;;;6.30;99.90;;;;;;5074205;28;20375;-40
2022/12/19 03:54:13;;;;;;;22.92;14.00;;;7.30;99.90;;;;;;5073929;28;20056;-43
2022/12/19 03:56:41;;;;;;;21.02;13.57;;;7.10;99.90;;;;;;5073699;28;20024;-42
2022/12/19 03:59:24;;;;;;;23.02;14.40;;;6.70;99.90;;;;;;5074198;28;20032;-36
2022/12/19 04:01:52;;;;;;;22.20;12.82;;;6.40;99.90;;;;;;5074342;28;20147;-40
2022/12/19 04:04:20;;;;;;;24.77;13.73;;;6.20;99.90;;;;;;5073968;28;20055;-42
2022/12/19 04:06:47;;;;;;;25.13;14.95;;;6.10;99.90;;;;;;5073597;28;20016;-38
2022/12/19 04:09:13;;;;;;;22.05;12.57;;;6.90;99.90;;;;;;5073791;28;20028;-37
2022/12/19 04:11:46;;;;;;;21.02;12.70;;;7.30;99.90;;;;;;5073749;28;20402;-39
2022/12/19 04:14:18;;;;;;;21.90;13.30;;;7.00;99.90;;;;;;5073789;28;20039;-40
2022/12/19 04:17:20;;;;;;;23.90;13.00;;;6.60;99.90;;;;;;5073385;28;20039;-40
2022/12/19 04:20:05;;;;;;;24.48;13.10;;;6.30;99.90;;;;;;5073590;28;20029;-38
2022/12/19 04:22:49;;;;;;;20.77;12.57;;;6.10;99.90;;;;;;5073519;28;20020;-40
2022/12/19 04:25:16;;;;;;;;;;;6.20;99.90;;;;;;5073957;28;20051;-40
2022/12/19 04:27:50;;;;;;;22.52;13.45;;;7.30;99.90;;;;;;5073203;28;20074;-41
2022/12/19 04:30:17;;;;;;;21.77;13.05;;;7.20;99.90;;;;;;5073468;28;20029;-39
2022/12/19 04:32:46;;;;;;;20.73;12.63;;;6.80;99.90;;;;;;5073373;28;20024;-37
2022/12/19 04:35:12;;;;;;;23.33;13.05;;;6.50;99.90;;;;;;5073248;28;20027;-42
2022/12/19 04:37:39;;;;;;;21.95;13.20;;;6.20;99.90;;;;;;5073207;28;20072;-40
2022/12/19 04:40:08;;;;;;;21.08;13.18;;;6.10;99.90;;;;;;5073136;28;20027;-40
2022/12/19 04:42:34;;;;;;;24.17;12.30;;;6.40;99.90;;;;;;5073214;28;20020;-37
2022/12/19 04:45:00;;;;;;;21.52;12.27;;;7.40;99.90;;;;;;5073130;28;20043;-39
2022/12/19 04:47:26;;;;;;;22.50;12.43;;;7.20;99.90;;;;;;5071436;28;20035;-36
2022/12/19 04:49:52;;;;;;;21.27;12.75;;;6.80;99.90;;;;;;5072916;28;20024;-41
2022/12/19 04:52:17;;;;;;;20.17;12.30;;;6.50;99.90;;;;;;5072207;28;20024;-39
2022/12/19 04:54:43;;;;;;;21.75;12.88;;;6.30;99.90;;;;;;5073044;28;20039;-41
2022/12/19 04:57:09;;;;;;;23.33;12.85;;;6.10;99.90;;;;;;5072609;28;20047;-38
2022/12/19 04:59:34;;;;;;;21.33;12.55;;;6.40;99.90;;;;;;5072795;28;20024;-38
2022/12/19 05:02:00;;;;;;;19.17;11.90;;;7.40;99.90;;;;;;5072845;28;20583;-40
2022/12/19 05:04:26;;;;;;;20.90;11.82;;;7.20;99.90;;;;;;5072674;28;20024;-38
2022/12/19 05:06:51;;;;;;;19.92;12.63;;;6.80;99.90;;;;;;5072466;28;20017;-39
2022/12/19 05:09:17;;;;;;;21.15;12.90;;;6.50;99.90;;;;;;5072666;28;20024;-41
2022/12/19 05:11:42;;;;;;;19.63;12.18;;;6.30;99.90;;;;;;5072726;28;20108;-40
2022/12/19 05:14:09;;;;;;;20.17;12.68;;;6.10;99.90;;;;;;5072685;28;20052;-39
2022/12/19 05:16:34;;;;;;;19.70;12.68;;;6.30;99.90;;;;;;5072264;28;20050;-38
2022/12/19 05:19:00;;;;;;;19.30;11.90;;;7.30;99.90;;;;;;5072357;28;20389;-40
2022/12/19 05:21:29;;;;;;;19.98;11.50;;;7.20;99.90;;;;;;5072424;28;20024;-40
2022/12/19 05:23:54;;;;;;;18.98;11.27;;;6.90;99.90;;;;;;5072520;28;20082;-38
2022/12/19 05:26:20;;;;;;;19.85;11.40;;;6.60;99.90;;;;;;5072035;28;20025;-39
2022/12/19 05:28:46;;;;;;;21.15;12.55;;;6.30;99.90;;;;;;5072627;28;20028;-39
2022/12/19 05:31:14;;;;;;;19.20;11.93;;;6.10;99.90;;;;;;5072261;28;20033;-39
2022/12/19 05:33:41;;;;;;;20.75;12.52;;;6.30;99.90;;;;;;5071927;28;20119;-43
2022/12/19 05:36:08;;;;;;;18.33;11.00;;;7.40;99.90;;;;;;5071810;28;20032;-40
2022/12/19 05:38:35;;;;;;;19.02;11.50;;;7.30;99.90;;;;;;5071934;28;20033;-38
2022/12/19 05:41:06;;;;;;;17.10;10.75;;;6.90;99.90;;;;;;5070688;28;20024;-41
2022/12/19 05:43:32;;;;;;;17.92;10.57;;;6.60;99.90;;;;;;5072010;28;20050;-38
2022/12/19 05:45:57;;;;;;;18.17;11.45;;;6.30;99.90;;;;;;5071638;28;20028;-41
2022/12/19 05:48:23;;;;;;;17.50;10.95;;;6.20;99.90;;;;;;5071978;28;20390;-39
2022/12/19 05:50:49;;;;;;;18.42;11.27;;;6.30;99.90;;;;;;5071831;28;20056;-38
2022/12/19 05:53:16;;;;;;;19.65;11.73;;;7.30;99.90;;;;;;5070408;28;20031;-41
2022/12/19 05:55:42;;;;;;;20.92;11.63;;;7.30;99.90;;;;;;5071503;28;20035;-36
2022/12/19 05:58:07;;;;;;;17.95;10.82;;;6.90;99.90;;;;;;5071604;28;20107;-40
2022/12/19 06:00:33;;;;;;;16.73;10.70;;;6.60;99.90;;;;;;5071465;28;20064;-40
2022/12/19 06:02:58;;;;;;;17.88;10.75;;;6.40;99.90;;;;;;5071666;28;20033;-38
2022/12/19 06:05:24;;;;;;;18.88;11.68;;;6.20;99.90;;;;;;5071753;28;20064;-39
2022/12/19 06:07:50;;;;;;;18.40;11.48;;;6.20;99.90;;;;;;5071323;28;20028;-41
2022/12/19 06:10:15;;;;;;;16.67;10.73;;;7.20;99.90;;;;;;5071658;28;20036;-42
2022/12/19 06:12:41;;;;;;;19.05;11.13;;;7.30;99.90;;;;;;5071626;28;20029;-41
2022/12/19 06:15:07;;;;;;;17.98;10.63;;;7.00;99.90;;;;;;5071499;28;20095;-42
2022/12/19 06:17:33;;;;;;;17.27;10.48;;;6.60;99.90;;;;;;5071121;28;20028;-39
2022/12/19 06:19:59;;;;;;;19.58;11.77;;;6.40;99.90;;;;;;5071405;28;20047;-40
2022/12/19 06:22:24;;;;;;;16.55;9.80;;;6.20;99.90;;;;;;5071352;28;20395;-40
2022/12/19 06:24:52;;;;;;;15.88;10.32;;;6.10;99.90;;;;;;5071373;28;20111;-39
2022/12/19 06:27:18;;;;;;;17.30;10.57;;;7.20;99.90;;;;;;5071066;28;20508;-41
2022/12/19 06:29:43;;;;;;;15.40;10.55;;;7.30;99.90;;;;;;5071253;28;20029;-40
2022/12/19 06:32:12;;;;;;;16.25;10.18;;;7.00;99.90;;;;;;5071281;28;20368;-40
2022/12/19 06:34:38;;;;;;;16.80;10.50;;;6.60;99.90;;;;;;5071320;28;20028;-40
2022/12/19 06:37:03;;;;;;;16.17;9.93;;;6.40;99.90;;;;;;5070880;28;20427;-39
2022/12/19 06:39:29;;;;;;;16.35;10.18;;;6.20;99.90;;;;;;5071184;28;20115;-41
2022/12/19 06:44:39;;;;;;;17.30;10.43;;;7.20;99.90;;;;;;5071196;28;20415;-41
2022/12/19 06:47:04;;;;;;;16.58;9.93;;;7.30;99.90;;;;;;5070869;28;20024;-39
2022/12/19 06:49:30;;;;;;;18.15;10.52;;;6.90;99.90;;;;;;5071151;28;20074;-40
2022/12/19 06:51:55;;;;;;;14.15;9.15;;;6.60;99.90;;;;;;5071035;28;20043;-42
2022/12/19 06:54:21;;;;;;;17.30;10.27;;;6.40;99.90;;;;;;5071047;28;20032;-38
2022/12/19 06:56:47;;;;;;;18.55;10.38;;;6.20;99.90;;;;;;5070776;28;20055;-39
2022/12/19 06:59:14;;;;;;;16.25;9.48;;;6.20;99.90;;;;;;5070949;28;20492;-42
2022/12/19 07:01:49;;;;;;;15.77;9.85;;;7.20;99.90;;;;;;5071067;28;20111;-42
2022/12/19 07:04:20;;;;;;;16.23;10.63;;;7.30;99.90;;;;;;5070981;28;20095;-43
2022/12/19 07:06:46;;;;;;;16.58;9.57;;;7.00;99.90;;;;;;5070760;28;20017;-39
2022/12/19 07:09:12;;;;;;;16.23;10.45;;;6.60;99.90;;;;;;5071009;28;20501;-36
2022/12/19 07:11:37;;;;;;;15.73;9.73;;;6.40;99.90;;;;;;5070880;28;20067;-39
2022/12/19 07:14:03;;;;;;;17.80;10.20;;;6.20;99.90;;;;;;5070975;28;20360;-43
2022/12/19 07:16:29;;;;;;;15.13;8.90;;;6.20;99.90;;;;;;5073639;28;20039;-43
2022/12/19 07:18:54;;;;;;;15.02;9.50;;;7.20;99.90;;;;;;5074685;28;20024;-43
2022/12/19 07:21:21;;;;;;;14.35;9.45;;;7.30;99.90;;;;;;5074733;28;20021;-44
2022/12/19 07:23:47;;;;;;;15.95;9.75;;;6.90;99.90;;;;;;5075111;28;20104;-42
2022/12/19 07:26:13;;;;;;;15.65;9.45;;;6.70;99.90;;;;;;5074220;28;20032;-42
2022/12/19 07:28:39;;;;;;;13.32;8.77;;;6.40;99.90;;;;;;5074580;28;20106;-42
2022/12/19 07:31:04;;;;;;;14.35;9.13;;;6.20;99.90;;;;;;5074548;28;20024;-41
2022/12/19 07:33:30;;;;;;;14.30;8.88;;;6.20;99.90;;;;;;5074468;28;20044;-39
2022/12/19 07:35:56;;;;;;;14.02;8.60;;;7.20;99.90;;;;;;5074082;28;20075;-37
2022/12/19 07:38:21;;;;;;;15.63;8.85;;;7.30;99.90;;;;;;5074306;28;20021;-40
2022/12/19 07:40:47;;;;;;;12.98;8.50;;;7.00;99.90;;;;;;5074180;28;20501;-41
2022/12/19 07:43:12;;;;;;;14.82;9.27;;;6.70;99.90;;;;;;5074456;28;20028;-43
2022/12/19 07:45:38;;;;;;;13.43;8.98;;;6.50;99.90;;;;;;5074288;28;20020;-43
2022/12/19 07:48:05;;;;;;;15.80;8.43;;;6.30;99.90;;;;;;5072705;28;20103;-43
2022/12/19 07:50:31;;;;;;;15.45;8.80;;;6.20;99.90;;;;;;5074098;28;20481;-36
2022/12/19 07:52:57;;;;;;;13.95;8.60;;;7.20;99.90;;;;;;5074135;28;20024;-37
2022/12/19 07:55:24;;;;;;;14.00;8.25;;;7.40;99.90;;;;;;5073955;28;20106;-42
2022/12/19 07:57:49;;;;;;;13.90;9.07;;;7.00;99.90;;;;;;5073757;28;20409;-41
2022/12/19 08:00:15;;;;;;;14.35;8.50;;;6.70;99.90;;;;;;5073962;28;20555;-43
2022/12/19 08:02:41;;;;;;;16.13;9.35;;;6.40;99.90;;;;;;5073963;28;20494;-43
2022/12/19 08:05:07;;;;;;;13.57;8.13;;;6.20;99.90;;;;;;5073928;28;20054;-42
2022/12/19 08:07:35;;;;;;;14.48;8.95;;;6.10;99.90;;;;;;5073614;28;20381;-42
2022/12/19 08:10:01;;;;;;;14.25;8.38;;;7.10;99.90;;;;;;5073732;28;20032;-43
2022/12/19 08:12:26;;;;;;;13.45;8.77;;;7.40;99.90;;;;;;5073821;28;20028;-43
2022/12/19 08:14:52;;;;;;;13.57;8.50;;;7.10;99.90;;;;;;5073723;28;20028;-43
2022/12/19 08:17:20;;;;;;;13.65;8.48;;;6.80;99.90;;;;;;5073392;28;20028;-43
2022/12/19 08:19:46;;;;;;;12.73;8.88;;;6.50;99.90;;;;;;5073665;28;20025;-43
2022/12/19 08:22:11;;;;;;;14.18;8.73;;;6.30;99.90;;;;;;5073686;28;20094;-42
2022/12/19 08:24:37;;;;;;;14.85;8.65;;;6.10;99.90;;;;;;5073447;28;20036;-41
2022/12/19 08:27:03;;;;;;;14.43;8.40;;;6.00;99.90;;;;;;5073197;28;20028;-42
2022/12/19 08:29:28;;;;;;;16.30;9.35;;;5.90;99.90;;;;;;5073476;28;20100;-42
2022/12/19 08:31:54;;;;;;;14.75;8.02;;;6.90;99.90;;;;;;5073460;28;20064;-43
2022/12/19 08:34:20;;;;;;;14.27;8.40;;;7.20;99.90;;;;;;5073387;28;20028;-43
2022/12/19 08:36:45;;;;;;;12.95;8.45;;;6.90;99.90;;;;;;5073064;28;20028;-43
2022/12/19 08:39:11;;;;;;;13.85;8.50;;;6.60;99.90;;;;;;5073093;28;20032;-41
2022/12/19 08:41:36;;;;;;;13.60;8.63;;;6.40;99.90;;;;;;5073238;28;20056;-36
2022/12/19 08:44:02;;;;;;;13.25;8.20;;;6.20;99.90;;;;;;5073235;28;20358;-40
2022/12/19 08:46:28;;;;;;;12.38;8.35;;;6.00;99.90;;;;;;5071540;28;20056;-37
2022/12/19 08:48:53;;;;;;;15.80;8.88;;;5.90;99.90;;;;;;5073123;28;20051;-35
2022/12/19 08:51:19;;;;;;;14.75;8.60;;;6.60;99.90;;;;;;5073050;28;20452;-38
2022/12/19 08:53:45;;;;;;;13.43;8.10;;;7.20;99.90;;;;;;5072955;28;20223;-40
2022/12/19 08:56:15;;;;;;;13.25;8.40;;;7.00;99.90;;;;;;5072720;28;20071;-40
2022/12/19 08:58:44;;;;;;;12.48;7.95;;;6.70;99.90;;;;;;5072819;28;20037;-38
2022/12/19 09:01:17;;;;;;;15.45;8.52;;;6.40;99.90;;;;;;5072872;28;20110;-39
2022/12/19 09:03:43;;;;;;;13.13;8.80;;;6.20;99.90;;;;;;5072853;28;20016;-37
2022/12/19 09:06:11;;;;;;;12.80;8.05;;;6.10;99.90;;;;;;5072380;28;20375;-37
2022/12/19 09:08:37;;;;;;;12.35;7.97;;;5.90;99.90;;;;;;5072746;28;20078;-38
2022/12/19 09:11:12;;;;;;;12.93;7.68;;;6.30;99.90;;;;;;5072694;28;20024;-40
2022/12/19 09:13:39;;;;;;;12.63;8.10;;;7.20;99.90;;;;;;5072677;28;20021;-36
2022/12/19 09:16:06;;;;;;;11.52;7.28;;;7.00;99.90;;;;;;5072315;28;20024;-39
2022/12/19 09:18:32;;;;;;;13.15;8.02;;;6.80;99.90;;;;;;5071079;28;20107;-40
2022/12/19 09:20:59;;;;;;;12.05;7.15;;;6.50;99.90;;;;;;5072411;28;20478;-40
2022/12/19 09:23:26;;;;;;;15.02;8.55;;;6.30;99.90;;;;;;5072438;28;20069;-39
2022/12/19 09:25:54;;;;;;;11.60;7.65;;;6.20;99.90;;;;;;5072051;28;20055;-38
2022/12/19 09:28:19;;;;;;;12.95;7.85;;;6.00;99.90;;;;;;5072222;28;20052;-38
2022/12/19 09:30:52;;;;;;;11.38;7.53;;;5.90;99.90;;;;;;5072250;28;20064;-40
2022/12/19 09:33:18;;;;;;;12.45;7.72;;;5.80;99.90;;;;;;5072069;28;20033;-38
2022/12/19 09:35:51;;;;;;;10.45;7.32;;;5.60;99.90;;;;;;5071972;28;20124;-37
2022/12/19 09:38:20;;;;;;;11.07;7.13;;;5.40;99.90;;;;;;5071635;28;20399;-43
2022/12/19 09:41:08;;;;;;;12.23;7.80;;;5.30;99.90;;;;;;5070652;28;20032;-42
2022/12/19 09:43:43;;;;;;;10.40;7.10;;;5.20;99.90;;;;;;5071943;28;20060;-43
2022/12/19 09:46:17;;;;;;;10.57;7.25;;;5.10;99.90;;;;;;5071780;28;20035;-39
2022/12/19 09:48:51;;;;;;;13.68;7.85;;;5.10;99.90;;;;;;5071928;28;20431;-43
2022/12/19 09:51:29;;;;;;;12.65;7.72;;;5.00;99.90;;;;;;5071890;28;20035;-43
2022/12/19 09:54:06;;;;;;;14.50;7.63;;;5.00;99.90;;;;;;5071677;28;20444;-43
2022/12/19 09:56:37;;;;;;;13.80;7.55;;;4.90;99.90;;;;;;5071554;28;20036;-38
2022/12/19 09:59:32;;;;;;;12.57;7.38;;;4.90;99.90;;;;;;5071660;28;20576;-37
2022/12/19 10:02:03;;;;;;;;;;;4.90;99.90;;;;;;5068153;28;20032;-41
2022/12/19 10:04:33;;;;;;;11.45;7.35;;;4.80;99.90;;;;;;5071583;28;19912;-36
2022/12/19 10:06:58;;;;;;;13.85;7.72;;;4.80;99.90;;;;;;5071282;28;20035;-40
2022/12/19 10:09:32;;;;;;;11.55;6.88;;;4.80;99.90;;;;;;5071633;28;20028;-41
2022/12/19 10:12:05;;;;;;;12.20;7.65;;;4.80;99.90;;;;;;5071683;28;20028;-41
2022/12/19 10:14:31;;;;;;;11.37;7.40;;;4.80;99.90;;;;;;5071224;28;20486;-41
2022/12/19 10:17:24;;;;;;;12.18;7.75;;;4.70;99.90;;;;;;5071239;28;20086;-37
2022/12/19 10:20:08;;;;;;;12.02;7.53;;;4.70;99.90;;;;;;5071503;28;20413;-42
2022/12/19 10:22:52;;;;;;;12.18;6.97;;;4.70;99.90;;;;;;5071436;28;20433;-37
2022/12/19 10:25:27;;;;;;;11.50;7.43;;;4.70;99.90;;;;;;5071514;28;20068;-35
2022/12/19 10:28:34;;;;;;;13.00;7.40;;;4.70;99.90;;;;;;5071226;28;20039;-41
2022/12/19 10:31:15;;;;;;;11.70;7.68;;;4.70;99.90;;;;;;5071235;28;20026;-40
2022/12/19 10:33:48;;;;;;;12.25;6.65;;;4.70;99.90;;;;;;5071324;28;20032;-37
2022/12/19 10:36:14;;;;;;;12.70;7.43;;;4.70;99.90;;;;;;5071125;28;20020;-43
2022/12/19 10:39:05;;;;;;;10.95;6.93;;;4.70;99.90;;;;;;5071145;28;20032;-37
2022/12/19 10:41:31;;;;;;;12.73;7.72;;;4.70;99.90;;;;;;5071268;28;20024;-40
2022/12/19 10:44:05;;;;;;;9.60;6.70;;;4.80;99.90;;;;;;5071186;28;20485;-43
2022/12/19 10:46:44;;;;;;;12.35;7.25;;;4.70;99.90;;;;;;5070926;28;20035;-43
2022/12/19 10:49:15;;;;;;;12.05;7.43;;;4.80;99.90;;;;;;5071238;28;20029;-42
2022/12/19 10:51:51;;;;;;;10.55;6.57;;;7.50;99.90;;;;;;5074507;28;20031;-35
2022/12/19 10:54:17;;;;;;;11.10;6.80;;;7.70;99.90;;;;;;5075246;28;20117;-38
2022/12/19 10:56:42;;;;;;;11.18;6.70;;;7.60;99.90;;;;;;5075027;28;20099;-41
2022/12/19 10:59:19;;;;;;;11.93;7.38;;;7.20;99.90;;;;;;5075209;28;20413;-41
2022/12/19 11:01:46;;;;;;;11.65;7.03;;;6.90;99.90;;;;;;5075093;28;20029;-43
2022/12/19 11:04:32;;;;;;;11.38;6.70;;;6.60;99.90;;;;;;5075109;28;20552;-39
2022/12/19 11:07:01;;;;;;;12.32;7.13;;;6.40;99.90;;;;;;5074808;28;20112;-39
2022/12/19 11:09:47;;;;;;;11.07;7.07;;;6.20;99.90;;;;;;5074999;28;20029;-41
2022/12/19 11:12:17;;;;;;;11.80;6.90;;;6.10;99.90;;;;;;5074950;28;20024;-42
2022/12/19 11:15:04;;;;;;;10.77;6.50;;;6.00;99.90;;;;;;5074521;28;20033;-43
2022/12/19 11:17:32;;;;;;;9.85;6.25;;;7.00;99.90;;;;;;5075119;28;20032;-43
2022/12/19 11:20:18;;;;;;;9.65;6.38;;;7.30;99.90;;;;;;5074817;28;20028;-43
2022/12/19 11:22:56;;;;;;;11.73;6.95;;;7.10;99.90;;;;;;5074533;28;20036;-43
2022/12/19 11:25:31;;;;;;;9.98;6.35;;;6.80;99.90;;;;;;5074630;28;20531;-42
2022/12/19 11:27:57;;;;;;;11.10;6.57;;;6.60;99.90;;;;;;5074516;28;20510;-43
2022/12/19 11:30:25;;;;;;;9.05;6.43;;;6.40;99.90;;;;;;5074611;28;20279;-41
2022/12/19 11:33:26;;;;;;;9.95;6.38;;;6.30;99.90;;;;;;5075594;28;20031;-43
2022/12/19 11:35:54;;;;;;;10.73;6.78;;;6.10;99.90;;;;;;5051842;28;20047;-41
2022/12/19 11:38:40;;;;;;;10.35;6.13;;;6.90;99.90;;;;;;5070430;28;20044;-42
2022/12/19 11:41:23;;;;;;;11.27;6.72;;;7.40;99.90;;;;;;5074235;28;20028;-43
2022/12/19 11:44:18;;;;;;;10.70;6.10;;;7.20;99.90;;;;;;5074341;28;20021;-38
2022/12/19 11:46:51;;;;;;;12.15;6.10;;;6.80;99.90;;;;;;5073982;28;20036;-43
2022/12/19 11:49:32;;;;;;;9.90;6.55;;;6.60;99.90;;;;;;5074237;28;20063;-37
2022/12/19 11:52:25;;;;;;;9.68;6.13;;;6.40;99.90;;;;;;5074240;28;20506;-43
2022/12/19 11:55:18;;;;;;;9.82;6.32;;;6.30;99.90;;;;;;5074017;28;20067;-43
2022/12/19 11:57:47;;;;;;;10.70;6.78;;;6.20;99.90;;;;;;5073787;28;20520;-41
2022/12/19 12:00:17;;;;;;;11.15;6.53;;;7.10;99.90;;;;;;5073927;28;20074;-41
2022/12/19 12:02:45;;;;;;;9.65;5.90;;;7.40;99.90;;;;;;5073483;28;20074;-40
2022/12/19 12:05:39;;;;;;;22.58;12.57;;;7.20;99.90;;;;;;5073961;28;20028;-42
2022/12/19 12:08:31;;;;;;;18.45;11.82;;;7.00;99.90;;;;;;5073759;28;20062;-39
2022/12/19 12:10:57;;;;;;;23.90;12.65;;;6.70;99.90;;;;;;5073894;28;20060;-40
2022/12/19 12:13:31;;;;;;;21.60;12.18;;;6.60;99.90;;;;;;5073793;28;20055;-41
2022/12/19 12:16:16;;;;;;;21.23;12.38;;;6.40;99.90;;;;;;5073600;28;20099;-39
2022/12/19 12:18:50;;;;;;;20.92;12.63;;;6.30;99.90;;;;;;5073612;28;20040;-39
2022/12/19 12:21:23;;;;;;;18.67;12.30;;;6.60;99.90;;;;;;5073692;28;20104;-38
2022/12/19 12:24:02;;;;;;;19.70;11.73;;;7.60;99.90;;;;;;5073652;28;20024;-37
2022/12/19 12:26:41;;;;;;;20.38;11.90;;;7.40;99.90;;;;;;5073461;28;20028;-40
2022/12/19 12:29:37;;;;;;;19.67;12.63;;;7.10;99.90;;;;;;5073403;28;20367;-38
2022/12/19 12:33:00;;;;;;;22.20;13.15;;;6.80;99.90;;;;;;5073539;28;20044;-38
2022/12/19 12:35:38;;;;;;;18.52;10.68;;;6.60;99.90;;;;;;5050824;28;20040;-40
2022/12/19 12:38:34;;;;;;;21.52;12.40;;;6.40;99.90;;;;;;5068120;28;20043;-36
2022/12/19 12:41:05;;;;;;;19.70;11.20;;;6.20;99.90;;;;;;5073395;28;20110;-36
2022/12/19 12:43:53;;;;;;;17.20;11.13;;;6.70;99.90;;;;;;5073220;28;20056;-37
2022/12/19 12:46:27;;;;;;;19.05;10.55;;;7.50;99.90;;;;;;5073281;28;20024;-39
2022/12/19 12:49:03;;;;;;;18.40;11.48;;;7.40;99.90;;;;;;5073406;28;20020;-40
2022/12/19 12:51:31;;;;;;;18.98;10.82;;;7.00;99.90;;;;;;5073134;28;20107;-43
2022/12/19 12:54:12;;;;;;;17.90;10.70;;;6.80;99.90;;;;;;5073321;28;20016;-36
2022/12/19 12:56:40;;;;;;;18.75;11.70;;;6.60;99.90;;;;;;5072695;28;20099;-40
2022/12/19 12:59:20;;;;;;;17.42;11.13;;;6.50;99.90;;;;;;5072991;28;20060;-40
2022/12/19 13:01:52;;;;;;;17.27;11.15;;;6.30;99.90;;;;;;5072945;28;20039;-38
2022/12/19 13:04:25;;;;;;;17.10;10.68;;;6.30;99.90;;;;;;5072819;28;20367;-36
2022/12/19 13:06:50;;;;;;;16.87;10.77;;;7.40;99.90;;;;;;5072540;28;20035;-40